createdAt,value
2023-04-13T00:00:19.269Z,5.80
2023-04-13T00:01:19.266Z,6.00
2023-04-13T00:02:19.365Z,6.20
2023-04-13T00:03:19.374Z,6.30
2023-04-13T00:04:19.294Z,6.10
2023-04-13T00:05:19.266Z,6.60
2023-04-13T00:06:20.240Z,7.70
2023-04-13T00:07:19.217Z,8.00
2023-04-13T00:08:19.203Z,7.90
2023-04-13T00:09:19.226Z,8.10
2023-04-13T00:10:19.206Z,6.80
2023-04-13T00:11:19.185Z,7.20
2023-04-13T00:12:19.174Z,7.20
2023-04-13T00:13:19.184Z,6.40
2023-04-13T00:14:19.189Z,6.20
2023-04-13T00:15:19.174Z,7.60
2023-04-13T00:16:19.182Z,6.20
2023-04-13T00:17:19.142Z,6.00
2023-04-13T00:18:19.133Z,5.70
2023-04-13T00:19:19.149Z,5.90
2023-04-13T00:20:19.125Z,5.80
2023-04-13T00:21:19.114Z,6.50
2023-04-13T00:22:19.101Z,7.50
2023-04-13T00:23:19.101Z,6.60
2023-04-13T00:24:19.108Z,7.00
2023-04-13T00:25:19.075Z,7.90
2023-04-13T00:26:19.068Z,6.80
2023-04-13T00:27:19.064Z,8.00
2023-04-13T00:28:19.054Z,6.00
2023-04-13T00:29:19.071Z,6.60
2023-04-13T00:30:19.043Z,5.60
2023-04-13T00:31:19.134Z,5.30
2023-04-13T00:32:19.022Z,5.20
2023-04-13T00:33:19.081Z,5.20
2023-04-13T00:34:19.041Z,4.70
2023-04-13T00:35:19.233Z,4.90
2023-04-13T00:36:18.997Z,4.80
2023-04-13T00:37:19.001Z,5.10
2023-04-13T00:38:18.994Z,7.40
2023-04-13T00:39:19.000Z,7.20
2023-04-13T00:40:18.962Z,7.50
2023-04-13T00:41:18.957Z,8.60
2023-04-13T00:42:18.950Z,8.00
2023-04-13T00:43:18.948Z,7.80
2023-04-13T00:44:18.955Z,5.40
2023-04-13T00:45:19.931Z,5.40
2023-04-13T00:46:18.998Z,5.00
2023-04-13T00:47:18.919Z,4.50
2023-04-13T00:48:18.907Z,4.80
2023-04-13T00:49:18.931Z,4.60
2023-04-13T00:50:18.891Z,4.20
2023-04-13T00:51:18.891Z,4.60
2023-04-13T00:52:18.881Z,4.30
2023-04-13T00:53:18.870Z,5.00
2023-04-13T00:54:18.885Z,5.10
2023-04-13T00:55:18.855Z,5.50
2023-04-13T00:56:18.852Z,5.90
2023-04-13T00:57:18.840Z,5.10
2023-04-13T00:58:18.835Z,5.30
2023-04-13T00:59:18.849Z,5.50
2023-04-13T01:00:18.812Z,5.30
2023-04-13T01:01:18.869Z,5.60
2023-04-13T01:02:18.899Z,5.40
2023-04-13T01:03:18.858Z,5.70
2023-04-13T01:04:18.888Z,5.30
2023-04-13T01:05:18.798Z,5.30
2023-04-13T01:06:18.765Z,4.30
2023-04-13T01:07:18.764Z,5.10
2023-04-13T01:08:18.763Z,5.00
2023-04-13T01:09:18.776Z,5.70
2023-04-13T01:10:18.743Z,6.00
2023-04-13T01:11:18.735Z,5.00
2023-04-13T01:12:18.718Z,5.00
2023-04-13T01:13:18.714Z,4.70
2023-04-13T01:14:18.739Z,5.20
2023-04-13T01:15:18.755Z,5.60
2023-04-13T01:16:18.745Z,5.60
2023-04-13T01:17:18.790Z,5.20
2023-04-13T01:18:18.690Z,5.30
2023-04-13T01:19:18.708Z,5.10
2023-04-13T01:20:18.671Z,5.10
2023-04-13T01:21:18.665Z,4.60
2023-04-13T01:22:18.639Z,5.10
2023-04-13T01:23:19.643Z,5.50
2023-04-13T01:24:18.640Z,5.00
2023-04-13T01:25:18.669Z,5.10
2023-04-13T01:26:18.634Z,5.30
2023-04-13T01:27:18.615Z,6.20
2023-04-13T01:28:18.614Z,5.60
2023-04-13T01:29:18.631Z,5.00
2023-04-13T01:30:18.603Z,5.50
2023-04-13T01:31:18.617Z,5.10
2023-04-13T01:32:18.581Z,4.50
2023-04-13T01:33:18.577Z,5.10
2023-04-13T01:34:18.591Z,5.10
2023-04-13T01:35:18.560Z,5.20
2023-04-13T01:36:18.547Z,4.80
2023-04-13T01:37:18.543Z,4.70
2023-04-13T01:38:18.535Z,5.50
2023-04-13T01:39:18.554Z,5.40
2023-04-13T01:40:18.521Z,5.10
2023-04-13T01:41:18.542Z,4.90
2023-04-13T01:42:18.505Z,4.50
2023-04-13T01:43:18.501Z,4.90
2023-04-13T01:44:18.512Z,5.20
2023-04-13T01:45:18.492Z,4.60
2023-04-13T01:46:18.562Z,5.30
2023-04-13T01:47:18.531Z,4.90
2023-04-13T01:48:18.460Z,4.90
2023-04-13T01:49:18.477Z,5.00
2023-04-13T01:50:18.442Z,5.00
2023-04-13T01:51:18.432Z,4.90
2023-04-13T01:52:18.437Z,4.60
2023-04-13T01:53:18.420Z,4.40
2023-04-13T01:54:18.434Z,4.80
2023-04-13T01:55:18.402Z,5.10
2023-04-13T01:56:18.400Z,4.70
2023-04-13T01:57:18.384Z,5.10
2023-04-13T01:58:18.380Z,4.40
2023-04-13T01:59:18.391Z,4.60
2023-04-13T02:00:18.357Z,4.70
2023-04-13T02:01:18.411Z,5.00
2023-04-13T02:02:18.421Z,5.20
2023-04-13T02:03:18.437Z,4.70
2023-04-13T02:04:18.541Z,4.80
2023-04-13T02:05:18.333Z,4.60
2023-04-13T02:06:18.323Z,4.60
2023-04-13T02:07:18.317Z,4.70
2023-04-13T02:08:18.314Z,5.30
2023-04-13T02:09:18.329Z,4.90
2023-04-13T02:10:18.290Z,4.80
2023-04-13T02:11:18.288Z,4.70
2023-04-13T02:12:19.287Z,4.80
2023-04-13T02:13:18.272Z,4.80
2023-04-13T02:14:18.297Z,5.20
2023-04-13T02:15:18.268Z,5.50
2023-04-13T02:16:18.258Z,5.80
2023-04-13T02:17:18.243Z,5.20
2023-04-13T02:18:18.239Z,5.00
2023-04-13T02:19:18.264Z,4.80
2023-04-13T02:20:18.230Z,5.10
2023-04-13T02:21:18.213Z,5.10
2023-04-13T02:22:18.211Z,5.40
2023-04-13T02:23:18.209Z,4.60
2023-04-13T02:24:18.194Z,5.10
2023-04-13T02:25:18.212Z,5.20
2023-04-13T02:26:18.179Z,4.40
2023-04-13T02:27:18.183Z,4.90
2023-04-13T02:28:18.352Z,4.80
2023-04-13T02:29:18.159Z,4.70
2023-04-13T02:30:18.180Z,4.40
2023-04-13T02:31:18.192Z,4.40
2023-04-13T02:32:18.183Z,4.50
2023-04-13T02:33:18.135Z,4.30
2023-04-13T02:34:18.122Z,4.30
2023-04-13T02:35:18.137Z,4.80
2023-04-13T02:36:18.103Z,4.60
2023-04-13T02:37:18.094Z,4.70
2023-04-13T02:38:18.090Z,4.30
2023-04-13T02:39:18.093Z,4.60
2023-04-13T02:40:18.097Z,4.50
2023-04-13T02:41:18.073Z,5.00
2023-04-13T02:42:18.057Z,5.10
2023-04-13T02:43:18.052Z,6.10
2023-04-13T02:44:18.046Z,6.80
2023-04-13T02:45:18.081Z,11.00
2023-04-13T02:46:18.183Z,18.30
2023-04-13T02:47:18.090Z,13.80
2023-04-13T02:48:18.011Z,18.10
2023-04-13T02:49:18.014Z,23.50
2023-04-13T02:50:18.040Z,20.00
2023-04-13T02:51:17.991Z,18.30
2023-04-13T02:52:17.982Z,17.90
2023-04-13T02:53:17.977Z,20.70
2023-04-13T02:54:17.982Z,22.30
2023-04-13T02:55:17.989Z,16.20
2023-04-13T02:56:17.946Z,19.20
2023-04-13T02:57:18.947Z,14.60
2023-04-13T02:58:17.938Z,12.60
2023-04-13T02:59:17.931Z,13.20
2023-04-13T03:00:17.952Z,13.50
2023-04-13T03:01:17.935Z,11.50
2023-04-13T03:02:17.934Z,10.20
2023-04-13T03:03:17.905Z,8.00
2023-04-13T03:04:17.910Z,7.30
2023-04-13T03:05:17.919Z,6.80
2023-04-13T03:06:17.874Z,5.90
2023-04-13T03:07:17.869Z,5.70
2023-04-13T03:08:17.865Z,5.90
2023-04-13T03:09:17.857Z,5.70
2023-04-13T03:10:17.876Z,5.50
2023-04-13T03:11:17.840Z,5.50
2023-04-13T03:12:17.831Z,5.60
2023-04-13T03:13:17.825Z,5.40
2023-04-13T03:14:17.817Z,5.80
2023-04-13T03:15:17.807Z,5.20
2023-04-13T03:16:17.911Z,5.30
2023-04-13T03:17:19.676Z,5.30
2023-04-13T03:18:18.786Z,4.80
2023-04-13T03:19:17.776Z,5.20
2023-04-13T03:20:17.778Z,5.50
2023-04-13T03:21:17.789Z,5.30
2023-04-13T03:22:17.753Z,5.30
2023-04-13T03:23:17.750Z,5.10
2023-04-13T03:24:17.750Z,4.80
2023-04-13T03:25:17.755Z,5.20
2023-04-13T03:26:17.748Z,5.10
2023-04-13T03:27:17.717Z,4.90
2023-04-13T03:28:17.708Z,5.10
2023-04-13T03:29:18.702Z,4.90
2023-04-13T03:30:17.690Z,5.20
2023-04-13T03:31:17.775Z,5.00
2023-04-13T03:32:17.700Z,5.60
2023-04-13T03:33:17.678Z,4.80
2023-04-13T03:34:17.660Z,5.20
2023-04-13T03:35:17.653Z,5.40
2023-04-13T03:36:17.669Z,5.40
2023-04-13T03:37:17.640Z,5.40
2023-04-13T03:38:17.634Z,4.90
2023-04-13T03:39:17.626Z,5.30
2023-04-13T03:40:17.616Z,5.20
2023-04-13T03:41:17.633Z,5.20
2023-04-13T03:42:17.604Z,5.20
2023-04-13T03:43:17.607Z,5.50
2023-04-13T03:44:17.591Z,5.00
2023-04-13T03:45:17.586Z,5.70
2023-04-13T03:46:17.618Z,5.20
2023-04-13T03:47:17.568Z,5.50
2023-04-13T03:48:17.589Z,5.50
2023-04-13T03:49:17.553Z,4.80
2023-04-13T03:50:17.546Z,5.50
2023-04-13T03:51:17.625Z,6.20
2023-04-13T03:52:17.540Z,5.20
2023-04-13T03:53:17.529Z,5.70
2023-04-13T03:54:17.518Z,5.80
2023-04-13T03:55:17.548Z,5.00
2023-04-13T03:56:17.534Z,5.60
2023-04-13T03:57:17.493Z,5.80
2023-04-13T03:58:17.486Z,5.50
2023-04-13T03:59:17.494Z,5.40
2023-04-13T04:00:17.472Z,5.60
2023-04-13T04:01:17.488Z,5.40
2023-04-13T04:02:17.516Z,5.30
2023-04-13T04:03:17.639Z,5.40
2023-04-13T04:04:17.534Z,5.20
2023-04-13T04:05:17.472Z,5.10
2023-04-13T04:06:17.458Z,5.10
2023-04-13T04:07:17.419Z,5.20
2023-04-13T04:08:17.413Z,5.70
2023-04-13T04:09:17.405Z,5.60
2023-04-13T04:10:17.402Z,5.20
2023-04-13T04:11:17.420Z,5.10
2023-04-13T04:12:17.428Z,4.80
2023-04-13T04:13:17.393Z,4.80
2023-04-13T04:14:17.380Z,5.40
2023-04-13T04:15:17.363Z,4.90
2023-04-13T04:16:17.413Z,4.70
2023-04-13T04:17:17.344Z,5.20
2023-04-13T04:18:17.340Z,4.90
2023-04-13T04:19:17.336Z,4.70
2023-04-13T04:20:17.354Z,4.80
2023-04-13T04:21:17.317Z,4.40
2023-04-13T04:22:17.306Z,4.50
2023-04-13T04:23:19.727Z,4.40
2023-04-13T04:24:17.283Z,4.60
2023-04-13T04:25:18.307Z,4.80
2023-04-13T04:26:17.277Z,4.70
2023-04-13T04:27:17.313Z,4.60
2023-04-13T04:28:17.283Z,6.30
2023-04-13T04:29:17.255Z,5.40
2023-04-13T04:30:18.182Z,4.80
2023-04-13T04:31:17.242Z,4.50
2023-04-13T04:32:17.231Z,4.50
2023-04-13T04:33:17.224Z,4.50
2023-04-13T04:34:17.215Z,4.30
2023-04-13T04:35:17.203Z,4.40
2023-04-13T04:36:17.218Z,4.00
2023-04-13T04:37:20.621Z,4.50
2023-04-13T04:38:18.181Z,4.80
2023-04-13T04:39:17.175Z,4.80
2023-04-13T04:40:17.200Z,3.90
2023-04-13T04:41:17.157Z,4.20
2023-04-13T04:42:17.162Z,3.90
2023-04-13T04:43:17.142Z,4.10
2023-04-13T04:44:17.132Z,4.20
2023-04-13T04:45:17.156Z,3.70
2023-04-13T04:46:17.189Z,4.10
2023-04-13T04:47:17.106Z,3.80
2023-04-13T04:48:17.102Z,4.10
2023-04-13T04:49:17.096Z,4.10
2023-04-13T04:50:17.135Z,4.00
2023-04-13T04:51:17.084Z,4.10
2023-04-13T04:52:17.075Z,4.40
2023-04-13T04:53:17.068Z,3.70
2023-04-13T04:54:17.077Z,3.30
2023-04-13T04:55:17.075Z,3.80
2023-04-13T04:56:17.057Z,3.60
2023-04-13T04:57:17.047Z,4.10
2023-04-13T04:58:17.030Z,4.50
2023-04-13T04:59:17.024Z,4.60
2023-04-13T05:00:17.092Z,4.40
2023-04-13T05:01:17.098Z,3.70
2023-04-13T05:02:17.020Z,3.40
2023-04-13T05:03:17.052Z,3.30
2023-04-13T05:04:16.991Z,3.50
2023-04-13T05:05:17.069Z,3.60
2023-04-13T05:06:16.969Z,3.30
2023-04-13T05:07:16.971Z,2.90
2023-04-13T05:08:16.958Z,3.30
2023-04-13T05:09:16.955Z,3.60
2023-04-13T05:10:16.971Z,2.90
2023-04-13T05:11:16.933Z,3.20
2023-04-13T05:12:16.931Z,3.10
2023-04-13T05:13:16.926Z,3.50
2023-04-13T05:14:16.918Z,3.50
2023-04-13T05:15:16.938Z,3.60
2023-04-13T05:16:16.918Z,3.30
2023-04-13T05:17:16.889Z,3.00
2023-04-13T05:18:16.877Z,2.80
2023-04-13T05:19:16.876Z,2.30
2023-04-13T05:20:16.895Z,2.20
2023-04-13T05:21:16.858Z,1.90
2023-04-13T05:22:16.849Z,2.00
2023-04-13T05:23:16.846Z,1.80
2023-04-13T05:24:16.846Z,1.90
2023-04-13T05:25:16.851Z,1.80
2023-04-13T05:26:16.804Z,2.00
2023-04-13T05:27:17.807Z,1.60
2023-04-13T05:28:16.822Z,1.60
2023-04-13T05:29:16.809Z,1.70
2023-04-13T05:30:16.816Z,1.90
2023-04-13T05:31:16.806Z,2.10
2023-04-13T05:32:16.776Z,1.50
2023-04-13T05:33:16.763Z,1.50
2023-04-13T05:34:16.778Z,1.80
2023-04-13T05:35:16.774Z,1.60
2023-04-13T05:36:16.740Z,1.60
2023-04-13T05:37:16.727Z,1.50
2023-04-13T05:38:16.720Z,1.60
2023-04-13T05:39:16.716Z,2.10
2023-04-13T05:40:16.740Z,1.70
2023-04-13T05:41:16.697Z,1.60
2023-04-13T05:42:16.691Z,1.70
2023-04-13T05:43:16.683Z,1.70
2023-04-13T05:44:16.673Z,1.30
2023-04-13T05:45:16.724Z,1.50
2023-04-13T05:46:16.696Z,1.40
2023-04-13T05:47:16.658Z,1.90
2023-04-13T05:48:16.642Z,1.30
2023-04-13T05:49:16.631Z,1.20
2023-04-13T05:50:16.650Z,1.20
2023-04-13T05:51:16.615Z,1.60
2023-04-13T05:52:16.603Z,1.20
2023-04-13T05:53:16.625Z,1.30
2023-04-13T05:54:16.588Z,1.10
2023-04-13T05:55:16.624Z,1.30
2023-04-13T05:56:16.573Z,1.20
2023-04-13T05:57:16.562Z,1.40
2023-04-13T05:58:16.579Z,1.30
2023-04-13T05:59:16.545Z,1.00
2023-04-13T06:00:16.541Z,2.40
2023-04-13T06:01:16.584Z,1.20
2023-04-13T06:02:16.581Z,1.40
2023-04-13T06:03:16.739Z,1.20
2023-04-13T06:04:16.709Z,1.10
2023-04-13T06:05:16.593Z,1.30
2023-04-13T06:06:16.532Z,1.20
2023-04-13T06:07:16.486Z,1.90
2023-04-13T06:08:17.485Z,3.10
2023-04-13T06:09:16.476Z,2.00
2023-04-13T06:10:16.468Z,1.40
2023-04-13T06:11:16.502Z,1.50
2023-04-13T06:12:16.452Z,1.30
2023-04-13T06:13:16.448Z,1.50
2023-04-13T06:14:16.429Z,1.50
2023-04-13T06:15:16.432Z,1.50
2023-04-13T06:16:16.476Z,1.70
2023-04-13T06:17:16.405Z,1.40
2023-04-13T06:18:16.412Z,3.60
2023-04-13T06:19:16.397Z,1.60
2023-04-13T06:20:16.391Z,1.40
2023-04-13T06:21:16.399Z,1.50
2023-04-13T06:22:16.361Z,1.60
2023-04-13T06:23:16.357Z,1.60
2023-04-13T06:24:16.351Z,1.30
2023-04-13T06:25:16.364Z,2.00
2023-04-13T06:26:16.365Z,1.50
2023-04-13T06:27:16.331Z,1.20
2023-04-13T06:28:16.321Z,2.00
2023-04-13T06:29:16.322Z,1.10
2023-04-13T06:30:16.314Z,1.30
2023-04-13T06:31:16.420Z,1.70
2023-04-13T06:32:16.300Z,1.40
2023-04-13T06:33:16.291Z,1.30
2023-04-13T06:34:16.294Z,1.80
2023-04-13T06:35:16.270Z,1.80
2023-04-13T06:36:16.312Z,2.00
2023-04-13T06:37:16.277Z,2.30
2023-04-13T06:38:16.245Z,1.50
2023-04-13T06:39:16.236Z,1.40
2023-04-13T06:40:16.231Z,1.80
2023-04-13T06:41:16.248Z,1.70
2023-04-13T06:42:16.207Z,2.00
2023-04-13T06:43:28.646Z,1.80
2023-04-13T06:44:18.201Z,1.80
2023-04-13T06:45:16.195Z,1.70
2023-04-13T06:46:17.757Z,1.80
2023-04-13T06:47:16.173Z,1.20
2023-04-13T06:48:16.170Z,1.70
2023-04-13T06:49:16.157Z,1.90
2023-04-13T06:50:16.159Z,1.50
2023-04-13T06:51:16.194Z,1.20
2023-04-13T06:52:16.139Z,1.60
2023-04-13T06:53:16.125Z,1.30
2023-04-13T06:54:16.115Z,1.60
2023-04-13T06:55:16.120Z,1.50
2023-04-13T06:56:16.125Z,1.40
2023-04-13T06:57:16.109Z,1.60
2023-04-13T06:58:16.083Z,1.70
2023-04-13T06:59:16.084Z,1.50
2023-04-13T07:00:28.764Z,1.20
2023-04-13T07:01:18.123Z,1.40
2023-04-13T07:02:16.141Z,1.20
2023-04-13T07:03:16.145Z,2.00
2023-04-13T07:04:16.148Z,1.50
2023-04-13T07:05:16.058Z,1.30
2023-04-13T07:06:16.081Z,1.70
2023-04-13T07:07:16.007Z,1.40
2023-04-13T07:08:16.018Z,1.40
2023-04-13T07:09:16.012Z,1.80
2023-04-13T07:10:15.984Z,1.20
2023-04-13T07:11:15.982Z,2.00
2023-04-13T07:12:16.011Z,1.50
2023-04-13T07:13:15.978Z,1.30
2023-04-13T07:14:15.961Z,1.40
2023-04-13T07:15:15.956Z,1.70
2023-04-13T07:16:17.014Z,2.10
2023-04-13T07:17:15.972Z,2.00
2023-04-13T07:18:15.935Z,1.50
2023-04-13T07:19:15.956Z,1.70
2023-04-13T07:20:15.914Z,1.50
2023-04-13T07:21:15.894Z,1.20
2023-04-13T07:22:15.911Z,1.60
2023-04-13T07:23:15.895Z,1.80
2023-04-13T07:24:15.950Z,1.50
2023-04-13T07:25:15.890Z,1.50
2023-04-13T07:26:15.866Z,2.50
2023-04-13T07:27:15.881Z,2.10
2023-04-13T07:28:15.842Z,1.50
2023-04-13T07:29:15.830Z,1.50
2023-04-13T07:30:15.826Z,1.30
2023-04-13T07:31:15.828Z,1.40
2023-04-13T07:32:15.830Z,1.40
2023-04-13T07:33:15.853Z,1.30
2023-04-13T07:34:15.798Z,1.80
2023-04-13T07:35:15.804Z,1.10
2023-04-13T07:36:15.775Z,1.00
2023-04-13T07:37:15.799Z,1.40
2023-04-13T07:38:15.760Z,1.30
2023-04-13T07:39:15.756Z,1.40
2023-04-13T07:40:15.770Z,1.40
2023-04-13T07:41:15.742Z,1.20
2023-04-13T07:42:15.932Z,1.10
2023-04-13T07:43:15.728Z,1.10
2023-04-13T07:44:15.711Z,0.90
2023-04-13T07:45:15.704Z,1.70
2023-04-13T07:46:15.759Z,1.40
2023-04-13T07:47:15.719Z,1.30
2023-04-13T07:48:15.682Z,1.10
2023-04-13T07:49:15.797Z,1.00
2023-04-13T07:50:15.661Z,1.40
2023-04-13T07:51:15.657Z,1.40
2023-04-13T07:52:15.683Z,1.50
2023-04-13T07:53:15.638Z,1.40
2023-04-13T07:54:16.778Z,1.20
2023-04-13T07:55:16.624Z,2.00
2023-04-13T07:56:15.616Z,1.70
2023-04-13T07:57:15.628Z,1.80
2023-04-13T07:58:15.604Z,1.70
2023-04-13T07:59:15.606Z,1.70
2023-04-13T08:00:15.584Z,1.70
2023-04-13T08:01:15.590Z,1.50
2023-04-13T08:02:15.627Z,1.50
2023-04-13T08:03:15.777Z,1.40
2023-04-13T08:04:15.857Z,1.70
2023-04-13T08:05:15.738Z,1.20
2023-04-13T08:06:15.548Z,1.30
2023-04-13T08:07:15.555Z,1.40
2023-04-13T08:08:15.526Z,1.50
2023-04-13T08:09:15.515Z,1.50
2023-04-13T08:10:16.509Z,1.20
2023-04-13T08:11:15.499Z,1.30
2023-04-13T08:12:15.668Z,1.30
2023-04-13T08:13:15.495Z,1.30
2023-04-13T08:14:15.472Z,1.50
2023-04-13T08:15:15.478Z,1.70
2023-04-13T08:16:15.514Z,1.70
2023-04-13T08:17:15.485Z,1.70
2023-04-13T08:18:15.462Z,1.40
2023-04-13T08:19:15.443Z,1.50
2023-04-13T08:20:15.442Z,1.60
2023-04-13T08:21:15.432Z,1.30
2023-04-13T08:22:15.463Z,1.50
2023-04-13T08:23:15.405Z,1.20
2023-04-13T08:24:15.400Z,1.50
2023-04-13T08:25:15.423Z,1.50
2023-04-13T08:26:15.382Z,1.50
2023-04-13T08:27:15.417Z,1.60
2023-04-13T08:28:15.410Z,1.30
2023-04-13T08:29:15.480Z,1.90
2023-04-13T08:30:15.353Z,2.00
2023-04-13T08:31:15.359Z,1.30
2023-04-13T08:32:15.518Z,1.50
2023-04-13T08:33:15.330Z,1.40
2023-04-13T08:34:15.326Z,1.30
2023-04-13T08:35:15.318Z,2.00
2023-04-13T08:36:15.312Z,1.00
2023-04-13T08:37:15.324Z,1.60
2023-04-13T08:38:15.282Z,1.40
2023-04-13T08:39:16.211Z,1.80
2023-04-13T08:40:15.277Z,1.70
2023-04-13T08:41:15.268Z,1.10
2023-04-13T08:42:15.300Z,1.20
2023-04-13T08:43:15.257Z,1.40
2023-04-13T08:44:15.250Z,1.80
2023-04-13T08:45:15.230Z,1.90
2023-04-13T08:46:15.242Z,1.20
2023-04-13T08:47:15.250Z,1.70
2023-04-13T08:48:15.285Z,1.20
2023-04-13T08:49:15.218Z,1.20
2023-04-13T08:50:15.195Z,1.60
2023-04-13T08:51:15.185Z,1.00
2023-04-13T08:52:16.834Z,1.70
2023-04-13T08:53:16.172Z,1.30
2023-04-13T08:54:15.166Z,1.80
2023-04-13T08:55:15.160Z,1.80
2023-04-13T08:56:15.147Z,1.30
2023-04-13T08:57:15.172Z,1.10
2023-04-13T08:58:15.131Z,1.40
2023-04-13T08:59:15.180Z,1.50
2023-04-13T09:00:15.128Z,1.40
2023-04-13T09:01:15.196Z,1.60
2023-04-13T09:02:15.190Z,1.20
2023-04-13T09:03:15.184Z,1.20
2023-04-13T09:04:15.215Z,1.40
2023-04-13T09:05:15.150Z,1.10
2023-04-13T09:06:15.073Z,1.30
2023-04-13T09:07:15.100Z,1.30
2023-04-13T09:08:15.049Z,1.00
2023-04-13T09:09:15.084Z,1.30
2023-04-13T09:10:15.887Z,1.30
2023-04-13T09:11:15.030Z,1.20
2023-04-13T09:12:15.065Z,1.50
2023-04-13T09:13:15.019Z,1.30
2023-04-13T09:14:15.005Z,1.40
2023-04-13T09:15:15.006Z,1.70
2023-04-13T09:16:14.999Z,1.50
2023-04-13T09:17:15.096Z,1.30
2023-04-13T09:18:14.981Z,1.20
2023-04-13T09:19:14.970Z,1.50
2023-04-13T09:20:14.981Z,1.60
2023-04-13T09:21:14.955Z,1.60
2023-04-13T09:22:14.968Z,1.30
2023-04-13T09:23:14.962Z,1.50
2023-04-13T09:24:14.929Z,1.30
2023-04-13T09:25:14.914Z,1.70
2023-04-13T09:26:14.917Z,1.80
2023-04-13T09:27:14.920Z,1.30
2023-04-13T09:28:14.896Z,1.40
2023-04-13T09:29:14.927Z,1.90
2023-04-13T09:30:14.881Z,1.50
2023-04-13T09:31:14.894Z,1.20
2023-04-13T09:32:14.884Z,1.80
2023-04-13T09:33:14.851Z,1.30
2023-04-13T09:34:14.877Z,1.80
2023-04-13T09:35:14.839Z,1.30
2023-04-13T09:36:14.824Z,2.20
2023-04-13T09:37:14.858Z,1.70
2023-04-13T09:38:14.809Z,1.40
2023-04-13T09:39:14.813Z,1.30
2023-04-13T09:40:14.824Z,1.60
2023-04-13T09:41:14.824Z,1.30
2023-04-13T09:42:14.806Z,1.20
2023-04-13T09:43:14.784Z,1.60
2023-04-13T09:44:14.780Z,2.10
2023-04-13T09:45:14.769Z,1.30
2023-04-13T09:46:14.846Z,1.20
2023-04-13T09:47:14.769Z,1.30
2023-04-13T09:48:14.735Z,1.10
2023-04-13T09:49:14.723Z,1.00
2023-04-13T09:50:14.727Z,1.00
2023-04-13T09:51:14.721Z,1.00
2023-04-13T09:52:14.732Z,1.10
2023-04-13T09:53:14.703Z,1.00
2023-04-13T09:54:14.705Z,1.20
2023-04-13T09:55:14.684Z,1.10
2023-04-13T09:56:14.686Z,1.10
2023-04-13T09:57:14.704Z,1.60
2023-04-13T09:58:14.701Z,1.10
2023-04-13T09:59:14.671Z,1.20
2023-04-13T10:00:15.081Z,1.20
2023-04-13T10:01:14.652Z,1.60
2023-04-13T10:02:14.720Z,1.70
2023-04-13T10:03:14.725Z,1.20
2023-04-13T10:04:14.630Z,1.40
2023-04-13T10:05:14.691Z,1.50
2023-04-13T10:06:14.672Z,1.10
2023-04-13T10:07:15.389Z,1.20
2023-04-13T10:08:19.648Z,1.30
2023-04-13T10:09:15.568Z,0.80
2023-04-13T10:10:14.565Z,0.90
2023-04-13T10:11:14.998Z,1.00
2023-04-13T10:12:14.587Z,1.00
2023-04-13T10:13:21.813Z,1.60
2023-04-13T10:14:16.538Z,1.50
2023-04-13T10:15:14.537Z,2.10
2023-04-13T10:16:14.538Z,1.90
2023-04-13T10:17:14.581Z,1.20
2023-04-13T10:18:14.595Z,1.30
2023-04-13T10:19:14.500Z,1.30
2023-04-13T10:20:14.485Z,1.20
2023-04-13T10:21:14.483Z,1.10
2023-04-13T10:22:14.497Z,1.00
2023-04-13T10:23:14.467Z,0.80
2023-04-13T10:24:14.476Z,1.40
2023-04-13T10:25:22.036Z,1.10
2023-04-13T10:26:16.435Z,1.00
2023-04-13T10:27:14.460Z,0.80
2023-04-13T10:28:14.418Z,0.90
2023-04-13T10:29:14.552Z,1.60
2023-04-13T10:30:14.407Z,0.70
2023-04-13T10:31:14.409Z,0.70
2023-04-13T10:32:14.424Z,1.00
2023-04-13T10:33:14.379Z,0.70
2023-04-13T10:34:14.365Z,0.90
2023-04-13T10:35:14.365Z,0.90
2023-04-13T10:36:14.351Z,0.70
2023-04-13T10:37:14.378Z,0.90
2023-04-13T10:38:14.341Z,0.80
2023-04-13T10:39:14.331Z,0.80
2023-04-13T10:40:14.323Z,0.90
2023-04-13T10:41:14.314Z,0.60
2023-04-13T10:42:15.981Z,0.50
2023-04-13T10:43:14.295Z,0.60
2023-04-13T10:44:14.296Z,0.80
2023-04-13T10:45:14.296Z,0.80
2023-04-13T10:46:14.289Z,0.80
2023-04-13T10:47:14.331Z,0.90
2023-04-13T10:48:14.301Z,1.10
2023-04-13T10:49:14.254Z,0.90
2023-04-13T10:50:14.301Z,0.80
2023-04-13T10:51:14.236Z,0.50
2023-04-13T10:52:14.239Z,0.60
2023-04-13T10:53:14.255Z,0.70
2023-04-13T10:54:14.255Z,0.60
2023-04-13T10:55:14.211Z,0.50
2023-04-13T10:56:14.201Z,0.50
2023-04-13T10:57:14.188Z,0.60
2023-04-13T10:58:14.226Z,0.60
2023-04-13T10:59:14.245Z,0.80
2023-04-13T11:00:14.165Z,0.60
2023-04-13T11:01:14.164Z,0.60
2023-04-13T11:02:14.193Z,0.70
2023-04-13T11:03:14.318Z,0.90
2023-04-13T11:04:17.049Z,1.10
2023-04-13T11:05:15.121Z,0.80
2023-04-13T11:06:14.116Z,1.00
2023-04-13T11:07:14.179Z,0.60
2023-04-13T11:08:14.125Z,0.70
2023-04-13T11:09:16.620Z,0.80
2023-04-13T11:10:15.080Z,0.50
2023-04-13T11:11:15.162Z,0.50
2023-04-13T11:12:15.069Z,1.20
2023-04-13T11:13:14.090Z,0.80
2023-04-13T11:14:14.055Z,0.60
2023-04-13T11:15:14.043Z,0.80
2023-04-13T11:16:14.043Z,0.70
2023-04-13T11:17:14.169Z,0.90
2023-04-13T11:18:14.120Z,0.50
2023-04-13T11:19:14.012Z,0.50
2023-04-13T11:20:14.060Z,0.80
2023-04-13T11:21:14.005Z,0.60
2023-04-13T11:22:13.999Z,0.60
2023-04-13T11:23:14.026Z,0.80
2023-04-13T11:24:14.014Z,0.60
2023-04-13T11:25:13.992Z,0.60
2023-04-13T11:26:13.966Z,0.70
2023-04-13T11:27:13.953Z,0.50
2023-04-13T11:28:13.977Z,0.50
2023-04-13T11:29:13.938Z,0.60
2023-04-13T11:30:14.013Z,0.50
2023-04-13T11:31:13.939Z,0.80
2023-04-13T11:32:13.999Z,0.80
2023-04-13T11:33:13.943Z,0.50
2023-04-13T11:34:13.915Z,0.70
2023-04-13T11:35:13.952Z,0.60
2023-04-13T11:36:13.892Z,0.70
2023-04-13T11:37:13.875Z,0.60
2023-04-13T11:38:13.898Z,0.50
2023-04-13T11:39:13.875Z,0.80
2023-04-13T11:40:14.051Z,0.60
2023-04-13T11:41:16.809Z,0.60
2023-04-13T11:42:14.833Z,0.60
2023-04-13T11:43:13.854Z,0.50
2023-04-13T11:44:13.856Z,0.50
2023-04-13T11:45:13.806Z,0.50
2023-04-13T11:46:13.917Z,0.50
2023-04-13T11:47:13.793Z,0.70
2023-04-13T11:48:13.810Z,0.60
2023-04-13T11:49:13.774Z,0.50
2023-04-13T11:50:15.458Z,0.30
2023-04-13T11:51:14.759Z,0.80
2023-04-13T11:52:13.758Z,0.50
2023-04-13T11:53:13.769Z,0.40
2023-04-13T11:54:13.737Z,0.40
2023-04-13T11:55:22.448Z,0.60
2023-04-13T11:56:15.725Z,0.50
2023-04-13T11:57:13.713Z,0.60
2023-04-13T11:58:13.734Z,0.60
2023-04-13T11:59:13.693Z,0.50
2023-04-13T12:00:13.698Z,0.60
2023-04-13T12:01:15.538Z,0.60
2023-04-13T12:02:22.033Z,0.50
2023-04-13T12:03:34.434Z,0.50
2023-04-13T12:04:16.842Z,0.60
2023-04-13T12:05:14.962Z,0.70
2023-04-13T12:06:14.814Z,0.60
2023-04-13T12:07:14.151Z,0.60
2023-04-13T12:08:14.449Z,0.50
2023-04-13T12:09:16.500Z,0.50
2023-04-13T12:10:23.225Z,0.60
2023-04-13T12:11:40.748Z,0.50
2023-04-13T12:12:50.764Z,0.40
2023-04-13T12:13:23.902Z,0.50
2023-04-13T12:14:21.298Z,0.40
2023-04-13T12:15:33.640Z,0.50
2023-04-13T12:16:18.317Z,0.70
2023-04-13T12:17:36.522Z,0.50
2023-04-13T12:18:17.806Z,0.50
2023-04-13T12:19:16.649Z,0.50
2023-04-13T12:20:13.722Z,0.60
2023-04-13T12:21:13.651Z,0.70
2023-04-13T12:22:14.939Z,0.70
2023-04-13T12:23:22.319Z,0.50
2023-04-13T12:24:15.642Z,0.50
2023-04-13T12:25:14.607Z,0.50
2023-04-13T12:26:48.614Z,0.70
2023-04-13T12:27:18.977Z,0.90
2023-04-13T12:28:14.604Z,0.70
2023-04-13T12:29:13.465Z,0.60
2023-04-13T12:30:13.459Z,0.70
2023-04-13T12:31:13.494Z,0.40
2023-04-13T12:32:13.438Z,0.70
2023-04-13T12:33:13.459Z,0.60
2023-04-13T12:34:13.425Z,0.50
2023-04-13T12:35:13.474Z,0.30
2023-04-13T12:36:13.405Z,0.30
2023-04-13T12:37:13.427Z,0.50
2023-04-13T12:38:13.423Z,0.50
2023-04-13T12:39:13.388Z,0.30
2023-04-13T12:40:13.377Z,0.40
2023-04-13T12:41:13.361Z,0.50
2023-04-13T12:42:14.359Z,0.60
2023-04-13T12:43:13.380Z,0.40
2023-04-13T12:44:13.348Z,0.60
2023-04-13T12:45:13.338Z,0.60
2023-04-13T12:46:13.358Z,1.00
2023-04-13T12:47:13.476Z,0.30
2023-04-13T12:48:13.360Z,0.40
2023-04-13T12:49:13.319Z,0.30
2023-04-13T12:50:13.308Z,0.20
2023-04-13T12:51:13.296Z,0.20
2023-04-13T12:52:13.281Z,0.20
2023-04-13T12:53:13.306Z,0.20
2023-04-13T12:54:13.302Z,0.20
2023-04-13T12:55:13.275Z,0.20
2023-04-13T12:56:13.255Z,0.20
2023-04-13T12:57:13.243Z,0.20
2023-04-13T12:58:13.265Z,0.50
2023-04-13T12:59:13.233Z,0.30
2023-04-13T13:00:13.224Z,0.30
2023-04-13T13:01:13.253Z,0.40
2023-04-13T13:02:13.229Z,0.40
2023-04-13T13:03:14.850Z,0.50
2023-04-13T13:04:14.212Z,0.30
2023-04-13T13:05:13.180Z,0.30
2023-04-13T13:06:13.174Z,0.40
2023-04-13T13:07:13.164Z,0.40
2023-04-13T13:08:13.185Z,0.30
2023-04-13T13:09:13.163Z,0.60
2023-04-13T13:10:29.027Z,1.00
2023-04-13T13:11:15.131Z,0.40
2023-04-13T13:12:13.124Z,0.40
2023-04-13T13:13:13.148Z,0.50
2023-04-13T13:14:13.119Z,0.40
2023-04-13T13:15:13.179Z,0.40
2023-04-13T13:16:13.179Z,0.40
2023-04-13T13:17:13.085Z,0.50